createdAt,value
2022-11-27T15:12:40.422Z,48.00
2022-11-27T15:13:40.257Z,44.00
2022-11-27T15:14:40.212Z,44.00
2022-11-27T15:15:40.155Z,44.00
2022-11-27T15:16:40.192Z,40.00
2022-11-27T15:17:40.050Z,40.00
2022-11-27T15:18:40.001Z,40.00
2022-11-27T15:19:40.202Z,36.00
2022-11-27T15:20:39.910Z,36.00
2022-11-27T15:21:39.857Z,32.00
2022-11-27T15:22:39.810Z,28.00
2022-11-27T15:23:39.760Z,32.00
2022-11-27T15:24:39.719Z,28.00
2022-11-27T15:25:39.671Z,28.00
2022-11-27T15:26:39.616Z,24.00
2022-11-27T15:27:39.570Z,24.00
2022-11-27T15:28:39.638Z,20.00
2022-11-27T15:29:40.017Z,24.00
2022-11-27T15:30:39.474Z,20.00
2022-11-27T15:31:39.409Z,20.00
2022-11-27T15:33:39.288Z,16.00
2022-11-27T15:34:39.446Z,16.00
2022-11-27T15:35:39.195Z,16.00
2022-11-27T15:36:39.151Z,16.00
2022-11-27T15:37:39.108Z,16.00
2022-11-27T15:38:39.056Z,12.00
2022-11-27T15:39:39.289Z,8.00
2022-11-27T15:40:38.965Z,8.00
2022-11-27T15:41:43.482Z,8.00
2022-11-27T15:42:38.877Z,8.00
2022-11-27T15:43:38.826Z,4.00
2022-11-27T15:44:39.183Z,4.00
2022-11-27T15:45:38.786Z,4.00
2022-11-27T15:46:38.691Z,4.00
2022-11-27T15:47:38.642Z,0.00
2022-11-27T15:48:38.602Z,4.00
2022-11-27T15:49:38.566Z,4.00
2022-11-27T15:50:38.506Z,4.00
2022-11-27T15:51:38.467Z,0.00
2022-11-27T15:52:38.417Z,0.00
2022-11-27T15:53:38.368Z,0.00
2022-11-27T15:54:38.442Z,0.00
2022-11-27T15:55:38.276Z,0.00
2022-11-27T15:56:38.232Z,0.00
2022-11-27T15:57:38.187Z,0.00
2022-11-27T15:58:38.469Z,0.00
2022-11-27T15:59:38.097Z,0.00
2022-11-27T16:00:38.260Z,0.00
2022-11-27T16:01:38.099Z,0.00
2022-11-27T16:02:38.068Z,0.00
2022-11-27T16:03:37.914Z,0.00
2022-11-27T16:04:37.947Z,0.00
2022-11-27T16:05:37.823Z,0.00
2022-11-27T16:06:37.780Z,0.00
2022-11-27T16:07:37.846Z,0.00
2022-11-27T16:08:37.693Z,0.00
2022-11-27T16:09:37.639Z,0.00
2022-11-27T16:10:37.593Z,0.00
2022-11-27T16:11:37.556Z,0.00
2022-11-27T16:12:37.504Z,0.00
2022-11-27T16:13:37.456Z,0.00
2022-11-27T16:14:37.414Z,0.00
2022-11-27T16:15:37.366Z,0.00
2022-11-27T16:16:37.500Z,0.00
2022-11-27T16:17:37.274Z,0.00
2022-11-27T16:18:37.228Z,0.00
2022-11-27T16:19:37.186Z,0.00
2022-11-27T16:20:37.142Z,0.00
2022-11-27T16:21:37.096Z,0.00
2022-11-27T16:22:37.055Z,0.00
2022-11-27T16:23:36.998Z,0.00
2022-11-27T16:24:36.954Z,0.00
2022-11-27T16:25:36.916Z,0.00
2022-11-27T16:26:36.866Z,0.00
2022-11-27T16:27:36.817Z,0.00
2022-11-27T16:28:36.773Z,0.00
2022-11-27T16:29:36.726Z,0.00
2022-11-27T16:30:36.681Z,0.00
2022-11-27T16:31:36.705Z,0.00
2022-11-27T16:32:36.705Z,0.00
2022-11-27T16:33:36.547Z,0.00
2022-11-27T16:34:36.504Z,0.00
2022-11-27T16:35:36.460Z,0.00
2022-11-27T16:36:36.410Z,0.00
2022-11-27T16:37:36.363Z,0.00
2022-11-27T16:38:36.321Z,0.00
2022-11-27T16:39:36.275Z,0.00
2022-11-27T16:40:36.227Z,0.00
2022-11-27T16:41:36.187Z,0.00
2022-11-27T16:42:36.141Z,0.00
2022-11-27T16:43:36.087Z,0.00
2022-11-27T16:44:36.066Z,0.00
2022-11-27T16:45:36.042Z,0.00
2022-11-27T16:46:35.954Z,0.00
2022-11-27T16:47:35.911Z,0.00
2022-11-27T16:48:41.834Z,0.00
2022-11-27T16:49:35.931Z,0.00
2022-11-27T16:50:35.777Z,0.00
2022-11-27T16:51:35.743Z,0.00
2022-11-27T16:52:35.681Z,0.00
2022-11-27T16:53:35.640Z,0.00
2022-11-27T16:54:35.591Z,0.00
2022-11-27T16:55:35.549Z,0.00
2022-11-27T16:56:35.501Z,0.00
2022-11-27T16:57:35.463Z,0.00
2022-11-27T16:58:35.406Z,0.00
2022-11-27T16:59:35.379Z,0.00
2022-11-27T17:00:35.316Z,0.00
2022-11-27T17:01:35.360Z,0.00
2022-11-27T17:02:35.326Z,0.00
2022-11-27T17:03:35.179Z,0.00
2022-11-27T17:04:35.163Z,0.00
2022-11-27T17:05:35.198Z,0.00
2022-11-27T17:06:35.044Z,0.00
2022-11-27T17:07:35.050Z,0.00
2022-11-27T17:08:34.973Z,0.00
2022-11-27T17:09:34.906Z,0.00
2022-11-27T17:10:34.883Z,0.00
2022-11-27T17:11:34.812Z,0.00
2022-11-27T17:12:34.780Z,0.00
2022-11-27T17:13:34.778Z,0.00
2022-11-27T17:14:34.682Z,0.00
2022-11-27T17:15:40.255Z,0.00
2022-11-27T17:16:34.677Z,0.00
2022-11-27T17:17:39.775Z,0.00
2022-11-27T17:18:34.506Z,0.00
2022-11-27T17:19:34.450Z,0.00
2022-11-27T17:20:34.404Z,0.00
2022-11-27T17:21:34.467Z,0.00
2022-11-27T17:22:34.318Z,0.00
2022-11-27T17:23:34.268Z,0.00
2022-11-27T17:24:34.242Z,0.00
2022-11-27T17:25:34.172Z,0.00
2022-11-27T17:26:34.166Z,0.00
2022-11-27T17:27:34.123Z,0.00
2022-11-27T17:28:34.070Z,0.00
2022-11-27T17:29:34.128Z,0.00
2022-11-27T17:30:39.030Z,0.00
2022-11-27T17:31:33.947Z,0.00
2022-11-27T17:32:33.894Z,0.00
2022-11-27T17:33:34.192Z,0.00
2022-11-27T17:34:33.849Z,0.00
2022-11-27T17:35:33.717Z,0.00
2022-11-27T17:36:36.799Z,0.00
2022-11-27T17:37:33.744Z,0.00
2022-11-27T17:38:33.579Z,0.00
2022-11-27T17:39:33.630Z,0.00
2022-11-27T17:40:33.518Z,0.00
2022-11-27T17:41:33.465Z,0.00
2022-11-27T17:42:33.871Z,0.00
2022-11-27T17:43:33.393Z,0.00
2022-11-27T17:44:33.358Z,0.00
2022-11-27T17:45:33.317Z,0.00
2022-11-27T17:46:33.230Z,0.00
2022-11-27T17:47:33.186Z,0.00
2022-11-27T17:48:33.142Z,0.00
2022-11-27T17:49:33.074Z,0.00
2022-11-27T17:50:33.055Z,0.00
2022-11-27T17:51:33.344Z,0.00
2022-11-27T17:52:32.961Z,0.00
2022-11-27T17:53:33.001Z,0.00
2022-11-27T17:54:32.850Z,0.00
2022-11-27T17:55:32.797Z,0.00
2022-11-27T17:56:32.776Z,0.00
2022-11-27T17:57:32.726Z,0.00
2022-11-27T17:58:32.992Z,0.00
2022-11-27T17:59:32.617Z,0.00
2022-11-27T18:00:32.581Z,0.00
2022-11-27T18:01:32.587Z,0.00
2022-11-27T18:02:32.563Z,0.00
2022-11-27T18:03:32.454Z,0.00
2022-11-27T18:04:32.406Z,0.00
2022-11-27T18:05:32.342Z,0.00
2022-11-27T18:06:32.298Z,0.00
2022-11-27T18:07:32.313Z,0.00
2022-11-27T18:08:32.209Z,0.00
2022-11-27T18:09:32.266Z,0.00
2022-11-27T18:10:32.132Z,0.00
2022-11-27T18:11:32.269Z,0.00
2022-11-27T18:12:32.045Z,0.00
2022-11-27T18:13:32.332Z,0.00
2022-11-27T18:14:32.256Z,0.00
2022-11-27T18:15:31.900Z,0.00
2022-11-27T18:16:31.927Z,0.00
2022-11-27T18:17:31.813Z,0.00
2022-11-27T18:18:31.771Z,0.00
2022-11-27T18:19:31.697Z,0.00
2022-11-27T18:20:31.678Z,0.00
2022-11-27T18:21:31.621Z,0.00
2022-11-27T18:22:31.585Z,0.00
2022-11-27T18:23:31.548Z,0.00
2022-11-27T18:24:31.488Z,0.00
2022-11-27T18:25:31.554Z,0.00
2022-11-27T18:26:52.575Z,0.00
2022-11-27T18:27:31.331Z,0.00
2022-11-27T18:28:31.312Z,0.00
2022-11-27T18:29:31.238Z,0.00
2022-11-27T18:30:31.211Z,0.00
2022-11-27T18:31:31.196Z,0.00
2022-11-27T18:32:31.112Z,0.00
2022-11-27T18:33:31.072Z,0.00
2022-11-27T18:34:31.010Z,0.00
2022-11-27T18:36:30.917Z,0.00
2022-11-27T18:37:30.915Z,0.00
2022-11-27T18:38:30.843Z,0.00
2022-11-27T18:39:30.782Z,0.00
2022-11-27T18:40:30.753Z,0.00
2022-11-27T18:41:31.017Z,0.00
2022-11-27T18:42:30.647Z,0.00
2022-11-27T18:43:30.625Z,0.00
2022-11-27T18:44:30.574Z,0.00
2022-11-27T18:45:33.283Z,0.00
2022-11-27T18:46:30.510Z,0.00
2022-11-27T18:47:30.438Z,0.00
2022-11-27T18:48:30.391Z,0.00
2022-11-27T18:49:30.372Z,0.00
2022-11-27T18:50:30.281Z,0.00
2022-11-27T18:51:30.231Z,0.00
2022-11-27T18:52:30.213Z,0.00
2022-11-27T18:53:30.168Z,0.00
2022-11-27T18:54:30.119Z,0.00
2022-11-27T18:55:30.046Z,0.00
2022-11-27T18:56:30.002Z,0.00
2022-11-27T18:57:30.066Z,0.00
2022-11-27T18:58:29.925Z,0.00
2022-11-27T18:59:29.881Z,0.00
2022-11-27T19:00:29.835Z,0.00
2022-11-27T19:01:29.892Z,0.00
2022-11-27T19:02:29.802Z,0.00
2022-11-27T19:04:56.452Z,0.00
2022-11-27T19:05:56.394Z,0.00
2022-11-27T19:06:56.372Z,0.00
2022-11-27T19:07:56.418Z,0.00
2022-11-27T19:08:56.254Z,0.00
2022-11-27T19:09:56.305Z,0.00
2022-11-27T19:10:56.170Z,0.00
2022-11-27T19:11:56.141Z,0.00
2022-11-27T19:12:56.189Z,0.00
2022-11-27T19:13:56.045Z,0.00
2022-11-27T19:14:55.994Z,0.00
2022-11-27T19:15:56.261Z,0.00
2022-11-27T19:16:55.956Z,0.00
2022-11-27T19:17:55.859Z,0.00
2022-11-27T19:18:55.811Z,0.00
2022-11-27T19:19:55.881Z,0.00
2022-11-27T19:20:55.720Z,0.00
2022-11-27T19:21:55.792Z,0.00
2022-11-27T19:22:55.614Z,0.00
2022-11-27T19:23:55.568Z,0.00
2022-11-27T19:24:55.520Z,0.00
2022-11-27T19:25:55.501Z,0.00
2022-11-27T19:26:55.429Z,0.00
2022-11-27T19:27:55.386Z,0.00
2022-11-27T19:28:55.445Z,0.00
2022-11-27T19:29:55.290Z,0.00
2022-11-27T19:30:55.243Z,0.00
2022-11-27T19:31:55.345Z,0.00
2022-11-27T19:32:55.159Z,0.00
2022-11-27T19:33:55.108Z,0.00
2022-11-27T19:34:55.058Z,0.00
2022-11-27T19:35:55.026Z,0.00
2022-11-27T19:36:54.967Z,0.00
2022-11-27T19:37:54.923Z,0.00
2022-11-27T19:38:54.886Z,0.00
2022-11-27T19:39:54.839Z,0.00
2022-11-27T19:40:54.789Z,0.00
2022-11-27T19:41:54.747Z,0.00
2022-11-27T19:43:00.723Z,0.00
2022-11-27T19:43:54.676Z,0.00
2022-11-27T19:44:54.710Z,0.00
2022-11-27T19:45:54.606Z,0.00
2022-11-27T19:46:54.507Z,0.00
2022-11-27T19:47:54.566Z,0.00
2022-11-27T19:48:54.419Z,0.00
2022-11-27T19:49:54.406Z,0.00
2022-11-27T19:50:54.324Z,0.00
2022-11-27T19:51:54.286Z,0.00
2022-11-27T19:52:54.280Z,0.00
2022-11-27T19:53:54.253Z,0.00
2022-11-27T19:54:54.177Z,0.00
2022-11-27T19:55:54.199Z,0.00
2022-11-27T19:56:54.066Z,0.00
2022-11-27T19:57:54.014Z,0.00
2022-11-27T19:58:53.950Z,0.00
2022-11-27T19:59:53.997Z,0.00
2022-11-27T20:00:54.075Z,0.00
2022-11-27T20:01:53.886Z,0.00
2022-11-27T20:02:53.850Z,0.00
2022-11-27T20:03:53.728Z,0.00
2022-11-27T20:04:53.680Z,0.00
2022-11-27T20:05:59.331Z,0.00
2022-11-27T20:06:53.591Z,0.00
2022-11-27T20:07:53.576Z,0.00
2022-11-27T20:08:53.521Z,0.00
2022-11-27T20:09:53.480Z,0.00
2022-11-27T20:10:53.401Z,0.00
2022-11-27T20:11:53.397Z,0.00
2022-11-27T20:12:53.419Z,0.00
2022-11-27T20:13:53.263Z,0.00
2022-11-27T20:14:53.215Z,0.00
2022-11-27T20:15:53.192Z,0.00
2022-11-27T20:16:53.265Z,0.00
2022-11-27T20:17:53.141Z,0.00
2022-11-27T20:18:53.160Z,0.00
2022-11-27T20:19:52.986Z,0.00
2022-11-27T20:20:52.939Z,0.00
2022-11-27T20:21:52.974Z,0.00
2022-11-27T20:22:52.845Z,0.00
2022-11-27T20:23:52.803Z,0.00
2022-11-27T20:25:17.873Z,0.00
2022-11-27T20:25:52.772Z,0.00
2022-11-27T20:26:52.661Z,0.00
2022-11-27T20:27:52.746Z,0.00
2022-11-27T20:28:52.567Z,0.00
2022-11-27T20:29:52.735Z,0.00
2022-11-27T20:30:52.542Z,0.00
2022-11-27T20:31:52.675Z,0.00
2022-11-27T20:32:52.572Z,0.00
2022-11-27T20:33:52.359Z,0.00
2022-11-27T20:34:52.378Z,0.00
2022-11-27T20:35:52.299Z,0.00
2022-11-27T20:36:52.338Z,0.00
2022-11-27T20:37:52.335Z,0.00
2022-11-27T20:38:52.235Z,0.00
2022-11-27T20:39:52.170Z,0.00
2022-11-27T20:40:52.018Z,0.00
2022-11-27T20:41:52.209Z,0.00
2022-11-27T20:42:51.922Z,0.00
2022-11-27T20:43:51.947Z,0.00
2022-11-27T20:44:51.883Z,0.00
2022-11-27T20:45:51.892Z,0.00
2022-11-27T20:46:51.806Z,0.00
2022-11-27T20:47:51.691Z,0.00
2022-11-27T20:48:51.825Z,0.00
2022-11-27T20:49:51.701Z,0.00
2022-11-27T20:50:51.552Z,0.00
2022-11-27T20:51:51.604Z,0.00
2022-11-27T20:52:51.470Z,0.00
2022-11-27T20:53:51.688Z,0.00
2022-11-27T20:54:51.420Z,0.00
2022-11-27T20:55:51.342Z,0.00
2022-11-27T20:56:51.383Z,0.00
2022-11-27T20:57:54.682Z,0.00
2022-11-27T20:58:51.183Z,0.00
2022-11-27T20:59:51.138Z,0.00
2022-11-27T21:00:51.112Z,0.00
2022-11-27T21:01:51.083Z,0.00
2022-11-27T21:02:51.083Z,0.00
2022-11-27T21:03:50.956Z,0.00
2022-11-27T21:04:51.018Z,0.00
2022-11-27T21:05:50.921Z,0.00
2022-11-27T21:06:50.812Z,0.00
2022-11-27T21:07:50.828Z,0.00
2022-11-27T21:08:50.720Z,0.00
2022-11-27T21:09:50.675Z,0.00
2022-11-27T21:10:50.627Z,0.00
2022-11-27T21:11:50.587Z,0.00
2022-11-27T21:12:50.536Z,0.00
2022-11-27T21:13:50.488Z,0.00
2022-11-27T21:14:50.442Z,0.00
2022-11-27T21:16:50.433Z,0.00
2022-11-27T21:17:50.311Z,0.00
2022-11-27T21:18:50.259Z,0.00
2022-11-27T21:19:50.219Z,0.00
2022-11-27T21:20:50.320Z,0.00
2022-11-27T21:21:50.121Z,0.00
2022-11-27T21:22:50.157Z,0.00
2022-11-27T21:23:50.032Z,0.00
2022-11-27T21:24:49.995Z,0.00
2022-11-27T21:25:50.012Z,0.00
2022-11-27T21:26:50.157Z,0.00
2022-11-27T21:27:49.883Z,0.00
2022-11-27T21:28:49.840Z,0.00
2022-11-27T21:29:49.747Z,0.00
2022-11-27T21:30:49.797Z,0.00
2022-11-27T21:31:49.688Z,0.00
2022-11-27T21:32:49.619Z,0.00
2022-11-27T21:33:49.564Z,0.00
2022-11-27T21:34:49.645Z,0.00
2022-11-27T21:35:49.474Z,0.00
2022-11-27T21:36:49.588Z,0.00
2022-11-27T21:37:49.379Z,0.00
2022-11-27T21:38:49.337Z,0.00
2022-11-27T21:39:49.294Z,0.00
2022-11-27T21:40:49.242Z,0.00
2022-11-27T21:41:49.193Z,0.00
2022-11-27T21:42:49.148Z,0.00
2022-11-27T21:43:49.100Z,0.00
2022-11-27T21:44:49.057Z,0.00
2022-11-27T21:45:49.097Z,0.00
2022-11-27T21:46:48.962Z,0.00
2022-11-27T21:47:48.917Z,0.00
2022-11-27T21:48:48.872Z,0.00
2022-11-27T21:49:48.825Z,0.00
2022-11-27T21:50:48.779Z,0.00
2022-11-27T21:51:48.730Z,0.00
2022-11-27T21:52:48.795Z,0.00
2022-11-27T21:53:48.638Z,0.00
2022-11-27T21:54:48.592Z,0.00
2022-11-27T21:55:48.549Z,0.00
2022-11-27T21:56:48.505Z,0.00
2022-11-27T21:57:48.455Z,0.00
2022-11-27T21:58:48.408Z,0.00
2022-11-27T21:59:48.365Z,0.00
2022-11-27T22:00:48.334Z,0.00
2022-11-27T22:01:48.457Z,0.00
2022-11-27T22:02:48.251Z,0.00
2022-11-27T22:03:48.175Z,0.00
2022-11-27T22:04:48.131Z,0.00
2022-11-27T22:05:48.083Z,0.00
2022-11-27T22:06:48.218Z,0.00
2022-11-27T22:07:48.101Z,0.00
2022-11-27T22:08:48.076Z,0.00
2022-11-27T22:09:47.897Z,0.00
2022-11-27T22:10:47.852Z,0.00
2022-11-27T22:11:47.809Z,0.00
2022-11-27T22:12:47.768Z,0.00
2022-11-27T22:13:47.712Z,0.00
2022-11-27T22:14:47.712Z,0.00
2022-11-27T22:15:47.623Z,0.00
2022-11-27T22:16:47.663Z,0.00
2022-11-27T22:17:47.530Z,0.00
2022-11-27T22:18:47.483Z,0.00
2022-11-27T22:19:47.442Z,0.00
2022-11-27T22:20:47.393Z,0.00
2022-11-27T22:21:47.344Z,0.00
2022-11-27T22:22:47.327Z,0.00
2022-11-27T22:23:47.250Z,0.00
2022-11-27T22:24:47.386Z,0.00
2022-11-27T22:25:47.157Z,0.00
2022-11-27T22:26:47.161Z,0.00
2022-11-27T22:27:47.063Z,0.00
2022-11-27T22:28:47.089Z,0.00
2022-11-27T22:29:46.972Z,0.00
2022-11-27T22:30:47.078Z,0.00
2022-11-27T22:31:46.881Z,0.00
2022-11-27T22:32:46.906Z,0.00
2022-11-27T22:33:46.780Z,0.00
2022-11-27T22:34:46.757Z,0.00
2022-11-27T22:35:46.689Z,0.00
2022-11-27T22:36:46.645Z,0.00
2022-11-27T22:37:46.598Z,0.00
2022-11-27T22:38:46.651Z,0.00
2022-11-27T22:39:46.502Z,0.00
2022-11-27T22:40:46.617Z,0.00
2022-11-27T22:41:46.412Z,0.00
2022-11-27T22:42:46.379Z,0.00
2022-11-27T22:43:46.318Z,0.00
2022-11-27T22:44:46.311Z,0.00
2022-11-27T22:45:46.281Z,0.00
2022-11-27T22:46:46.196Z,0.00
2022-11-27T22:47:46.128Z,0.00
2022-11-27T22:48:46.128Z,0.00
2022-11-27T22:49:46.035Z,0.00
2022-11-27T22:50:46.080Z,0.00
2022-11-27T22:51:45.942Z,0.00
2022-11-27T22:52:45.972Z,0.00
2022-11-27T22:53:45.848Z,0.00
2022-11-27T22:54:45.869Z,0.00
2022-11-27T22:55:45.781Z,0.00
2022-11-27T22:56:45.897Z,0.00
2022-11-27T22:57:45.666Z,0.00
2022-11-27T22:58:45.618Z,0.00
2022-11-27T22:59:45.571Z,0.00
2022-11-27T23:00:45.522Z,0.00
2022-11-27T23:01:45.474Z,0.00
2022-11-27T23:02:45.517Z,0.00
2022-11-27T23:03:45.438Z,0.00
2022-11-27T23:04:45.498Z,0.00
2022-11-27T23:05:45.290Z,0.00
2022-11-27T23:06:45.244Z,0.00
2022-11-27T23:07:45.247Z,0.00
2022-11-27T23:08:45.150Z,0.00
2022-11-27T23:09:45.107Z,0.00
2022-11-27T23:10:45.055Z,0.00
2022-11-27T23:11:45.012Z,0.00
2022-11-27T23:12:45.074Z,0.00
2022-11-27T23:13:49.515Z,0.00
2022-11-27T23:14:45.115Z,0.00
2022-11-27T23:15:44.875Z,0.00
2022-11-27T23:16:44.852Z,0.00
2022-11-27T23:17:44.765Z,0.00
2022-11-27T23:18:44.678Z,0.00
2022-11-27T23:19:44.772Z,0.00
2022-11-27T23:20:44.584Z,0.00
2022-11-27T23:21:44.545Z,0.00
2022-11-27T23:22:44.492Z,0.00
2022-11-27T23:23:44.515Z,0.00
2022-11-27T23:24:44.557Z,0.00
2022-11-27T23:25:44.351Z,0.00
2022-11-27T23:26:44.308Z,0.00
2022-11-27T23:28:44.346Z,0.00
2022-11-27T23:29:44.194Z,0.00
2022-11-27T23:30:44.118Z,0.00
2022-11-27T23:31:44.111Z,0.00
2022-11-27T23:32:44.025Z,0.00
2022-11-27T23:33:44.017Z,0.00
2022-11-27T23:34:44.144Z,0.00
2022-11-27T23:35:43.997Z,0.00
2022-11-27T23:36:43.842Z,0.00
2022-11-27T23:37:43.784Z,0.00
2022-11-27T23:38:43.745Z,0.00
2022-11-27T23:39:43.694Z,0.00
2022-11-27T23:40:43.646Z,0.00
